Time;durP1;ratioP1;P1;durP2;ratioP2;P2;SDS_P1;SDS_P2;PMS_P1;PMS_P2;Temp;Humidity;BMP_temperature;BMP_pressure;BME280_temperature;BME280_humidity;BME280_pressure;Samples;Min_cycle;Max_cycle;Signal;HPM_P1;HPM_P2
2021/01/13 00:00:54;;;;;;;3.53;0.70;;;11.90;88.80;;;;;;4918595;29;20084;-74
2021/01/13 00:03:20;;;;;;;4.28;0.93;;;12.20;89.20;;;;;;4918592;29;20039;-74
2021/01/13 00:05:45;;;;;;;2.90;1.00;;;11.90;89.10;;;;;;4918536;29;20044;-74
2021/01/13 00:08:11;;;;;;;1.23;0.40;;;12.00;89.10;;;;;;4918629;29;20083;-74
2021/01/13 00:10:37;;;;;;;2.10;0.50;;;12.10;89.10;;;;;;4918595;29;20052;-74
2021/01/13 00:13:03;;;;;;;2.33;0.80;;;12.10;89.50;;;;;;4918555;29;20048;-74
2021/01/13 00:15:29;;;;;;;2.13;0.80;;;11.90;89.40;;;;;;4918626;29;20047;-74
2021/01/13 00:17:55;;;;;;;2.03;0.90;;;11.90;88.70;;;;;;4918620;29;20071;-74
2021/01/13 00:20:21;;;;;;;4.25;0.98;;;12.20;88.70;;;;;;4918257;29;20047;-74
2021/01/13 00:22:47;;;;;;;3.05;0.75;;;12.00;88.70;;;;;;4918331;29;20515;-74
2021/01/13 00:25:15;;;;;;;1.98;0.85;;;12.00;88.70;;;;;;4918176;29;20036;-74
2021/01/13 00:27:40;;;;;;;3.88;0.82;;;12.00;88.80;;;;;;4918349;29;20526;-74
2021/01/13 00:30:07;;;;;;;1.23;0.50;;;11.80;88.80;;;;;;4918297;29;20044;-74
2021/01/13 00:32:32;;;;;;;1.58;0.40;;;12.00;88.80;;;;;;4917793;29;20048;-74
2021/01/13 00:34:59;;;;;;;2.72;0.43;;;11.90;88.70;;;;;;4917553;29;20399;-74
2021/01/13 00:37:26;;;;;;;0.85;0.22;;;11.90;88.70;;;;;;4917628;29;20036;-74
2021/01/13 00:39:52;;;;;;;2.40;0.30;;;11.90;89.20;;;;;;4918206;29;20056;-73
2021/01/13 00:42:17;;;;;;;0.93;0.20;;;12.10;88.90;;;;;;4918392;29;20385;-74
2021/01/13 00:44:43;;;;;;;1.85;0.10;;;11.90;88.90;;;;;;4918061;29;20170;-74
2021/01/13 00:47:14;;;;;;;0.22;0.10;;;11.80;89.00;;;;;;4917779;29;20123;-74
2021/01/13 00:49:40;;;;;;;1.33;0.10;;;11.90;89.50;;;;;;4918138;29;20152;-74
2021/01/13 00:52:09;;;;;;;0.50;0.00;;;11.80;89.00;;;;;;4918100;29;20127;-74
2021/01/13 00:54:35;;;;;;;0.70;0.10;;;11.80;88.70;;;;;;4917927;29;20047;-74
2021/01/13 00:57:01;;;;;;;0.43;0.10;;;11.80;88.70;;;;;;4917111;29;20504;-73
2021/01/13 00:59:27;;;;;;;1.88;0.40;;;11.70;88.70;;;;;;4917417;29;20059;-74
2021/01/13 01:01:52;;;;;;;0.95;0.20;;;11.80;88.70;;;;;;4918044;29;20396;-74
2021/01/13 01:04:18;;;;;;;0.77;0.15;;;11.90;88.80;;;;;;4918232;29;20052;-74
2021/01/13 01:06:53;;;;;;;0.30;0.10;;;11.70;88.40;;;;;;4917647;29;20499;-74
2021/01/13 01:09:19;;;;;;;1.65;0.20;;;11.80;88.60;;;;;;4917475;29;20082;-74
2021/01/13 01:11:44;;;;;;;0.30;0.10;;;11.80;88.60;;;;;;4917433;29;20515;-74
2021/01/13 01:14:11;;;;;;;1.02;0.20;;;11.80;88.40;;;;;;4917638;29;20038;-74
2021/01/13 01:16:38;;;;;;;0.85;0.10;;;12.00;88.50;;;;;;4917991;29;20122;-74
2021/01/13 01:19:06;;;;;;;0.40;0.10;;;11.80;88.30;;;;;;4918037;29;20083;-74
2021/01/13 01:21:33;;;;;;;1.17;0.20;;;11.90;88.40;;;;;;4918094;29;20040;-74
2021/01/13 01:23:59;;;;;;;1.50;0.10;;;11.90;88.30;;;;;;4917721;29;20400;-73
2021/01/13 01:26:24;;;;;;;1.00;0.10;;;12.00;88.40;;;;;;4917892;29;20075;-74
2021/01/13 01:28:50;;;;;;;1.30;0.08;;;11.70;88.20;;;;;;4918111;29;20504;-73
2021/01/13 01:31:16;;;;;;;0.25;0.10;;;11.70;88.20;;;;;;4917744;29;20131;-73
2021/01/13 01:33:42;;;;;;;0.40;0.00;;;11.50;87.90;;;;;;4918100;29;20044;-74
2021/01/13 01:36:08;;;;;;;0.82;0.00;;;11.50;87.80;;;;;;4917709;29;20167;-74
2021/01/13 01:38:34;;;;;;;0.40;0.05;;;11.30;87.60;;;;;;4918053;29;20044;-74
2021/01/13 01:41:08;;;;;;;0.73;0.10;;;11.20;87.80;;;;;;4917866;29;20413;-74
2021/01/13 01:43:35;;;;;;;0.65;0.10;;;11.10;88.00;;;;;;4917975;29;20090;-74
2021/01/13 01:46:01;;;;;;;0.85;0.10;;;11.20;88.30;;;;;;4918068;29;20036;-74
2021/01/13 01:48:35;;;;;;;0.93;0.10;;;11.40;88.50;;;;;;4917457;29;20043;-73
2021/01/13 01:51:02;;;;;;;0.70;0.10;;;11.30;88.40;;;;;;4917870;29;20531;-74
2021/01/13 01:53:39;;;;;;;0.15;0.03;;;11.10;88.10;;;;;;4917642;29;20052;-74
2021/01/13 01:56:11;;;;;;;0.32;0.00;;;11.30;88.10;;;;;;4917850;29;20044;-74
2021/01/13 01:58:37;;;;;;;2.72;0.10;;;11.40;88.30;;;;;;4917992;29;20164;-74
2021/01/13 02:01:05;;;;;;;1.08;0.20;;;11.30;88.40;;;;;;4917959;29;20135;-74
2021/01/13 02:03:52;;;;;;;2.15;0.15;;;11.50;88.30;;;;;;4917686;29;20040;-74
2021/01/13 02:06:19;;;;;;;2.08;0.13;;;11.30;88.10;;;;;;4917921;29;20044;-74
2021/01/13 02:08:46;;;;;;;1.20;0.10;;;11.50;88.50;;;;;;4920121;29;20040;-74
2021/01/13 02:11:17;;;;;;;0.70;0.08;;;11.40;88.60;;;;;;4920705;29;20102;-74
2021/01/13 02:13:44;;;;;;;2.53;0.20;;;11.60;88.70;;;;;;4921088;29;20082;-74
2021/01/13 02:16:15;;;;;;;0.20;0.00;;;11.70;88.70;;;;;;4920805;29;20177;-74
2021/01/13 02:18:42;;;;;;;0.20;0.00;;;11.40;88.40;;;;;;4921295;29;20051;-73
2021/01/13 02:21:20;;;;;;;2.30;0.20;;;11.50;88.60;;;;;;4920645;29;20052;-74
2021/01/13 02:24:08;;;;;;;2.92;0.00;;;11.60;88.70;;;;;;4920575;29;20119;-74
2021/01/13 02:27:19;;;;;;;0.10;0.00;;;11.70;88.90;;;;;;4904012;29;20048;-74
2021/01/13 02:29:52;;;;;;;0.10;0.00;;;11.70;88.70;;;;;;4915544;29;20040;-74
2021/01/13 02:32:25;;;;;;;1.13;0.00;;;11.70;88.60;;;;;;4920513;29;20039;-74
2021/01/13 02:34:55;;;;;;;0.10;0.00;;;11.70;88.60;;;;;;4920302;29;20044;-74
2021/01/13 02:37:36;;;;;;;0.73;0.00;;;11.70;88.50;;;;;;4920201;29;20060;-74
2021/01/13 02:40:14;;;;;;;0.50;0.00;;;11.70;88.30;;;;;;4919971;29;20056;-74
2021/01/13 02:43:08;;;;;;;0.15;0.00;;;11.90;88.40;;;;;;4920312;29;20047;-74
2021/01/13 02:45:46;;;;;;;0.70;0.00;;;11.80;88.50;;;;;;4920288;29;20250;-74
2021/01/13 02:48:15;;;;;;;0.05;0.00;;;11.80;88.40;;;;;;4920321;29;20044;-74
2021/01/13 02:50:58;;;;;;;0.55;0.00;;;11.80;88.50;;;;;;4919781;29;20377;-74
2021/01/13 02:53:30;;;;;;;1.13;0.00;;;11.70;88.50;;;;;;4919584;29;20151;-74
2021/01/13 02:55:56;;;;;;;0.38;0.00;;;11.60;88.40;;;;;;4919832;29;20043;-74
2021/01/13 02:58:36;;;;;;;0.43;0.00;;;11.80;88.40;;;;;;4919493;29;20068;-74
2021/01/13 03:01:06;;;;;;;0.52;0.00;;;11.40;88.30;;;;;;4920149;29;20063;-74
2021/01/13 03:03:33;;;;;;;0.10;0.00;;;11.50;88.10;;;;;;4919427;29;20114;-74
2021/01/13 03:06:08;;;;;;;0.68;0.00;;;11.70;88.20;;;;;;4918982;29;20388;-73
2021/01/13 03:09:03;;;;;;;0.70;0.00;;;11.70;88.20;;;;;;4919546;29;20039;-74
2021/01/13 03:11:29;;;;;;;;;;;12.10;88.30;;;;;;4918636;29;20056;-74
2021/01/13 03:14:10;;;;;;;0.20;0.00;;;11.70;88.30;;;;;;4919403;29;20343;-74
2021/01/13 03:17:01;;;;;;;0.45;0.00;;;11.80;88.40;;;;;;4919639;29;20044;-74
2021/01/13 03:19:40;;;;;;;0.43;0.00;;;11.90;88.60;;;;;;4918824;29;20127;-74
2021/01/13 03:22:15;;;;;;;0.03;0.00;;;11.60;88.30;;;;;;4919717;29;20040;-74
2021/01/13 03:24:49;;;;;;;0.30;0.00;;;11.70;88.30;;;;;;4919547;29;20219;-74
2021/01/13 03:27:16;;;;;;;0.90;0.00;;;11.70;88.20;;;;;;4919608;29;20079;-74
2021/01/13 03:29:46;;;;;;;0.17;0.00;;;11.70;88.20;;;;;;4919263;29;20051;-74
2021/01/13 03:32:32;;;;;;;0.00;0.00;;;11.30;88.00;;;;;;4919482;29;20036;-73
2021/01/13 03:35:11;;;;;;;0.63;0.00;;;11.60;88.20;;;;;;4918922;29;20040;-74
2021/01/13 03:37:57;;;;;;;0.80;0.00;;;11.60;88.20;;;;;;4918685;29;20043;-74
2021/01/13 03:40:28;;;;;;;0.35;0.00;;;11.60;88.20;;;;;;4919091;29;20055;-74
2021/01/13 03:42:57;;;;;;;0.40;0.00;;;11.80;88.10;;;;;;4918563;29;20194;-74
2021/01/13 03:45:38;;;;;;;0.30;0.00;;;11.60;88.10;;;;;;4919177;29;20039;-74
2021/01/13 03:48:11;;;;;;;0.30;0.00;;;11.60;88.20;;;;;;4918555;29;20056;-74
2021/01/13 03:50:44;;;;;;;0.20;0.00;;;11.70;88.20;;;;;;4919031;29;20068;-74
2021/01/13 03:53:11;;;;;;;0.20;0.00;;;11.60;87.90;;;;;;4918980;29;20036;-74
2021/01/13 03:55:39;;;;;;;0.10;0.00;;;11.80;87.90;;;;;;4919013;29;20115;-74
2021/01/13 03:58:42;;;;;;;1.02;0.10;;;11.80;87.90;;;;;;4918376;29;20048;-74
2021/01/13 04:01:23;;;;;;;0.52;0.00;;;11.80;88.00;;;;;;4918396;29;20051;-74
2021/01/13 04:04:28;;;;;;;0.40;0.08;;;11.30;88.00;;;;;;4917984;29;20032;-75
2021/01/13 04:07:01;;;;;;;1.38;0.08;;;11.10;87.80;;;;;;4918505;29;20071;-73
2021/01/13 04:09:31;;;;;;;0.22;0.10;;;11.20;87.90;;;;;;4918545;29;20132;-74
2021/01/13 04:12:09;;;;;;;0.47;0.10;;;11.40;88.00;;;;;;4918821;29;20128;-74
2021/01/13 04:14:56;;;;;;;0.22;0.10;;;11.50;88.00;;;;;;4918242;29;20446;-74
2021/01/13 04:17:24;;;;;;;0.10;0.00;;;11.60;88.00;;;;;;4918510;29;20047;-74
2021/01/13 04:19:51;;;;;;;0.25;0.00;;;11.60;88.00;;;;;;4918500;29;20107;-74
2021/01/13 04:22:19;;;;;;;0.50;0.00;;;11.40;87.90;;;;;;4918513;29;20043;-74
2021/01/13 04:24:48;;;;;;;0.32;0.00;;;11.50;87.90;;;;;;4918389;29;20054;-74
2021/01/13 04:27:17;;;;;;;0.45;0.00;;;11.30;87.90;;;;;;4918415;29;20043;-74
2021/01/13 04:29:44;;;;;;;0.25;0.00;;;11.10;87.90;;;;;;4918153;29;20048;-74
2021/01/13 04:32:11;;;;;;;0.10;0.00;;;11.10;87.90;;;;;;4918166;29;20107;-74
2021/01/13 04:34:37;;;;;;;0.35;0.00;;;11.10;88.10;;;;;;4917905;29;20048;-73
2021/01/13 04:37:06;;;;;;;0.28;0.00;;;10.90;88.00;;;;;;4918044;29;20087;-74
2021/01/13 04:39:32;;;;;;;0.80;0.00;;;10.90;87.90;;;;;;4918259;29;20090;-74
2021/01/13 04:42:03;;;;;;;0.20;0.00;;;10.90;87.90;;;;;;4918306;29;20040;-73
2021/01/13 04:44:34;;;;;;;1.63;0.00;;;10.80;87.90;;;;;;4917811;29;20075;-74
2021/01/13 04:47:09;;;;;;;0.22;0.00;;;11.00;88.30;;;;;;4917909;29;20115;-74
2021/01/13 04:49:36;;;;;;;0.30;0.00;;;10.80;88.20;;;;;;4917891;29;20078;-74
2021/01/13 04:52:18;;;;;;;0.85;0.00;;;11.00;88.20;;;;;;4917531;29;20036;-74
2021/01/13 04:54:47;;;;;;;0.50;0.00;;;10.90;88.10;;;;;;4917998;29;20103;-74
2021/01/13 04:57:35;;;;;;;0.47;0.00;;;10.80;88.10;;;;;;4917706;29;20039;-74
2021/01/13 05:00:10;;;;;;;0.90;0.00;;;10.90;88.30;;;;;;4870884;29;20134;-74
2021/01/13 05:03:02;;;;;;;1.60;0.00;;;11.00;88.30;;;;;;4917587;29;20092;-74
2021/01/13 05:05:31;;;;;;;1.60;0.10;;;11.10;88.20;;;;;;4916823;29;20047;-74
2021/01/13 05:08:26;;;;;;;1.35;0.10;;;11.00;88.30;;;;;;4917363;29;20032;-74
2021/01/13 05:11:10;;;;;;;0.90;0.10;;;11.00;88.30;;;;;;4897114;29;20445;-73
2021/01/13 05:13:45;;;;;;;0.28;0.10;;;11.10;88.40;;;;;;4900761;29;20361;-74
2021/01/13 05:16:13;;;;;;;1.92;0.10;;;11.20;88.40;;;;;;4917480;29;20068;-74
2021/01/13 05:18:51;;;;;;;4.60;0.50;;;11.40;88.60;;;;;;4917507;29;20044;-73
2021/01/13 05:21:25;;;;;;;1.58;0.22;;;11.10;88.40;;;;;;4917232;29;20055;-74
2021/01/13 05:23:57;;;;;;;0.88;0.20;;;11.30;88.70;;;;;;4917724;29;20076;-74
2021/01/13 05:26:25;;;;;;;1.90;0.20;;;11.10;88.60;;;;;;4917712;29;20108;-74
2021/01/13 05:29:03;;;;;;;2.45;0.25;;;11.20;88.60;;;;;;4917286;29;20055;-73
2021/01/13 05:31:33;;;;;;;0.65;0.20;;;11.20;88.60;;;;;;4916999;29;20040;-73
2021/01/13 05:34:01;;;;;;;3.15;0.40;;;11.10;88.50;;;;;;4916862;29;20040;-74
2021/01/13 05:36:31;;;;;;;2.42;0.45;;;11.10;88.50;;;;;;4916915;29;20130;-74
2021/01/13 05:39:11;;;;;;;3.13;0.30;;;11.20;88.60;;;;;;4917590;29;20170;-73
2021/01/13 05:41:41;;;;;;;1.98;0.60;;;11.10;88.70;;;;;;4917236;29;20497;-74
2021/01/13 05:44:10;;;;;;;2.47;0.43;;;11.30;89.00;;;;;;4920615;29;20036;-73
2021/01/13 05:46:44;;;;;;;2.38;0.40;;;11.00;88.70;;;;;;4921226;29;20496;-73
2021/01/13 05:49:10;;;;;;;2.47;0.30;;;10.90;88.80;;;;;;4920222;29;20066;-74
2021/01/13 05:51:37;;;;;;;3.53;0.40;;;11.20;89.10;;;;;;4920306;29;20052;-74
2021/01/13 05:54:06;;;;;;;2.90;0.10;;;11.20;89.00;;;;;;4920824;29;20047;-74
2021/01/13 05:56:39;;;;;;;1.95;0.25;;;11.30;89.10;;;;;;4919921;29;20067;-74
2021/01/13 05:59:07;;;;;;;2.20;0.20;;;11.30;89.10;;;;;;4920318;29;20040;-74
2021/01/13 06:01:43;;;;;;;3.30;0.10;;;11.20;89.00;;;;;;4920263;29;20066;-74
2021/01/13 06:04:10;;;;;;;2.83;0.20;;;11.10;88.90;;;;;;4920761;29;20098;-74
2021/01/13 06:06:45;;;;;;;2.13;0.20;;;11.10;88.90;;;;;;4920388;29;20036;-73
2021/01/13 06:09:12;;;;;;;3.25;0.55;;;11.30;89.10;;;;;;4920518;29;20036;-74
2021/01/13 06:11:42;;;;;;;3.38;0.35;;;11.30;88.90;;;;;;4920821;29;20052;-74
2021/01/13 06:14:10;;;;;;;3.47;0.45;;;11.50;89.00;;;;;;4920884;29;20033;-74
2021/01/13 06:16:36;;;;;;;3.63;0.30;;;11.30;88.70;;;;;;4920608;29;20042;-73
2021/01/13 06:19:02;;;;;;;1.83;0.20;;;11.00;88.20;;;;;;4920598;29;20122;-74
2021/01/13 06:21:28;;;;;;;3.80;0.30;;;11.00;88.00;;;;;;4920556;29;20048;-74
2021/01/13 06:23:54;;;;;;;1.05;0.28;;;11.30;88.30;;;;;;4920597;29;20064;-74
2021/01/13 06:26:20;;;;;;;3.20;0.35;;;10.80;88.20;;;;;;4920274;29;20044;-74
2021/01/13 06:28:58;;;;;;;4.18;0.40;;;10.80;88.30;;;;;;4920030;29;20044;-74
2021/01/13 06:31:26;;;;;;;1.58;0.20;;;10.70;88.40;;;;;;4920426;29;20135;-74
2021/01/13 06:34:27;;;;;;;5.05;0.30;;;10.70;88.60;;;;;;4920351;29;20123;-74
2021/01/13 06:37:15;;;;;;;2.15;0.25;;;10.80;88.70;;;;;;4919894;29;20127;-74
2021/01/13 06:39:41;;;;;;;4.38;0.60;;;10.80;88.80;;;;;;4920514;29;20055;-74
2021/01/13 06:42:07;;;;;;;2.88;0.45;;;10.70;88.50;;;;;;4920196;29;20032;-74
2021/01/13 06:44:46;;;;;;;3.38;0.65;;;10.80;88.60;;;;;;4919808;29;20044;-74
2021/01/13 06:47:12;;;;;;;2.72;0.52;;;10.50;88.40;;;;;;4920171;29;20060;-74
2021/01/13 06:49:38;;;;;;;2.45;0.40;;;10.80;88.60;;;;;;4920034;29;20074;-74
2021/01/13 06:52:07;;;;;;;2.05;0.20;;;10.70;88.50;;;;;;4919631;29;20068;-74
2021/01/13 06:54:43;;;;;;;4.25;0.30;;;10.80;88.60;;;;;;4918617;29;20127;-74
2021/01/13 06:57:11;;;;;;;2.65;0.30;;;10.70;88.40;;;;;;4918818;29;20040;-74
2021/01/13 06:59:38;;;;;;;1.33;0.30;;;10.60;88.50;;;;;;4907186;29;20056;-74
2021/01/13 07:02:04;;;;;;;4.00;0.40;;;10.60;88.60;;;;;;4917935;29;20051;-72
2021/01/13 07:04:46;;;;;;;2.55;0.47;;;10.80;88.70;;;;;;4909588;29;20045;-73
2021/01/13 07:07:12;;;;;;;2.00;0.40;;;10.80;88.60;;;;;;4903298;29;20055;-73
2021/01/13 07:09:45;;;;;;;2.92;0.40;;;10.70;88.30;;;;;;4918388;29;20400;-72
2021/01/13 07:12:14;;;;;;;2.53;0.20;;;10.70;88.30;;;;;;4919347;29;20036;-73
2021/01/13 07:14:47;;;;;;;2.05;0.28;;;10.60;88.40;;;;;;4918758;29;20048;-74
2021/01/13 07:17:15;;;;;;;4.25;0.75;;;10.70;88.40;;;;;;4908662;29;20036;-72
2021/01/13 07:19:46;;;;;;;2.67;0.60;;;10.60;88.50;;;;;;4899609;29;20093;-73
2021/01/13 07:22:13;;;;;;;2.38;0.45;;;10.50;88.60;;;;;;4900277;29;20095;-72
2021/01/13 07:24:42;;;;;;;2.78;0.40;;;10.70;88.60;;;;;;4900360;29;20044;-73
2021/01/13 07:27:08;;;;;;;3.45;0.38;;;10.50;88.50;;;;;;4900053;29;20039;-72
2021/01/13 07:29:34;;;;;;;2.80;0.68;;;10.50;88.50;;;;;;4898940;29;20248;-72
2021/01/13 07:32:02;;;;;;;2.08;0.40;;;10.40;88.60;;;;;;4900025;29;20453;-72
2021/01/13 07:34:39;;;;;;;3.70;0.45;;;10.20;88.40;;;;;;4900124;29;20045;-72
2021/01/13 07:37:17;;;;;;;3.42;0.35;;;10.50;88.70;;;;;;4899708;29;20097;-72
2021/01/13 07:40:13;;;;;;;6.55;0.45;;;10.40;88.60;;;;;;4899700;29;20057;-72
2021/01/13 07:42:41;;;;;;;1.92;0.60;;;10.40;88.50;;;;;;4898608;29;20041;-72
2021/01/13 07:45:20;;;;;;;3.15;0.70;;;10.40;88.30;;;;;;4899101;29;20536;-73
2021/01/13 07:48:11;;;;;;;2.90;0.73;;;10.30;88.30;;;;;;4899422;29;20047;-73
2021/01/13 07:50:42;;;;;;;5.47;2.33;;;10.20;88.50;;;;;;4899379;29;20040;-74
2021/01/13 07:53:27;;;;;;;7.25;3.00;;;10.30;88.90;;;;;;4908301;29;20537;-73
2021/01/13 07:56:03;;;;;;;5.97;3.03;;;10.00;88.90;;;;;;4937224;29;20114;-74
2021/01/13 07:58:31;;;;;;;6.32;2.10;;;10.10;89.10;;;;;;4920147;29;20036;-73
2021/01/13 08:01:34;;;;;;;7.35;2.63;;;10.00;89.10;;;;;;4919525;29;20040;-73
2021/01/13 08:04:25;;;;;;;9.57;3.65;;;10.00;89.10;;;;;;4917661;29;20048;-74
2021/01/13 08:06:54;;;;;;;7.28;4.13;;;10.20;89.90;;;;;;4917389;29;20114;-73
2021/01/13 08:09:22;;;;;;;6.03;3.05;;;10.10;89.20;;;;;;4917949;29;20040;-74
2021/01/13 08:12:08;;;;;;;6.28;2.60;;;10.10;89.30;;;;;;4916844;29;20524;-73
2021/01/13 08:14:55;;;;;;;4.82;2.13;;;10.30;89.50;;;;;;4899593;29;20103;-73
2021/01/13 08:17:54;;;;;;;5.50;2.25;;;10.50;89.50;;;;;;4917471;29;20067;-73
2021/01/13 08:20:51;;;;;;;5.35;1.40;;;10.50;89.20;;;;;;4917847;29;20086;-73
2021/01/13 08:23:26;;;;;;;4.97;1.83;;;10.50;88.80;;;;;;4918291;29;20092;-73
2021/01/13 08:25:55;;;;;;;3.67;1.50;;;10.60;88.70;;;;;;4915096;29;20146;-72
2021/01/13 08:28:22;;;;;;;4.45;1.73;;;10.40;88.70;;;;;;4914349;29;20104;-73
2021/01/13 08:30:49;;;;;;;4.90;1.42;;;10.50;89.20;;;;;;4898035;29;20044;-73
2021/01/13 08:33:25;;;;;;;6.85;1.67;;;10.50;89.40;;;;;;4898595;29;20067;-73
2021/01/13 08:35:57;;;;;;;2.17;1.20;;;10.70;89.50;;;;;;4898791;29;20044;-73
2021/01/13 08:38:24;;;;;;;4.63;1.60;;;10.90;89.40;;;;;;4898517;29;20051;-73
2021/01/13 08:40:50;;;;;;;3.53;1.30;;;11.00;89.20;;;;;;4898466;29;20527;-73
2021/01/13 08:43:18;;;;;;;3.33;1.50;;;11.20;89.20;;;;;;4897507;29;20436;-73
2021/01/13 08:45:46;;;;;;;3.40;1.88;;;11.10;89.10;;;;;;4898586;29;20095;-73
2021/01/13 08:48:14;;;;;;;5.50;2.15;;;11.20;89.20;;;;;;4898483;29;20089;-73
2021/01/13 08:50:42;;;;;;;3.75;1.90;;;11.30;89.20;;;;;;4895599;29;20048;-74
2021/01/13 08:53:24;;;;;;;3.35;1.70;;;11.10;89.20;;;;;;4905483;29;20044;-74
2021/01/13 08:55:53;;;;;;;6.65;2.80;;;11.30;89.30;;;;;;4928708;29;20119;-73
2021/01/13 08:58:28;;;;;;;5.32;3.08;;;11.30;89.30;;;;;;4916465;29;20059;-74
2021/01/13 09:01:06;;;;;;;5.65;3.28;;;11.50;89.30;;;;;;4916764;29;20050;-74
2021/01/13 09:03:37;;;;;;;5.90;3.35;;;11.40;89.20;;;;;;4916457;29;20087;-74
2021/01/13 09:06:23;;;;;;;7.35;2.35;;;11.50;89.20;;;;;;4916341;29;20036;-74
2021/01/13 09:08:54;;;;;;;5.47;1.67;;;11.60;89.40;;;;;;4917385;29;20048;-74
2021/01/13 09:11:36;;;;;;;3.83;1.55;;;11.70;89.50;;;;;;4896661;29;20700;-74
2021/01/13 09:14:21;;;;;;;7.75;2.83;;;11.80;89.30;;;;;;4892739;29;20084;-74
2021/01/13 09:16:51;;;;;;;5.75;2.45;;;11.70;89.20;;;;;;4894380;29;20037;-73
2021/01/13 09:19:33;;;;;;;6.20;1.80;;;11.80;89.20;;;;;;4896308;29;20047;-73
2021/01/13 09:22:03;;;;;;;4.00;1.40;;;11.90;89.30;;;;;;4892941;29;20075;-74
2021/01/13 09:24:41;;;;;;;4.95;1.30;;;12.30;89.50;;;;;;4897266;29;20032;-74
2021/01/13 09:27:09;;;;;;;3.85;1.10;;;12.20;89.40;;;;;;4897678;29;20052;-73
2021/01/13 09:30:07;;;;;;;7.03;3.10;;;12.20;89.40;;;;;;4896702;29;20055;-73
2021/01/13 09:32:53;;;;;;;6.10;2.03;;;12.20;89.40;;;;;;4897312;29;20052;-74
2021/01/13 09:35:31;;;;;;;4.93;2.53;;;12.20;89.20;;;;;;4898075;29;20041;-73
2021/01/13 09:38:04;;;;;;;4.85;2.08;;;12.40;88.90;;;;;;4896815;29;20600;-74
2021/01/13 09:40:52;;;;;;;7.15;3.25;;;12.60;89.00;;;;;;4897225;29;20064;-74
2021/01/13 09:43:34;;;;;;;9.20;3.88;;;12.60;89.00;;;;;;4897907;29;20493;-74
2021/01/13 09:46:06;;;;;;;8.40;3.67;;;12.70;88.80;;;;;;4898279;29;20084;-74
2021/01/13 09:48:34;;;;;;;10.40;4.50;;;12.90;88.70;;;;;;4898204;29;20531;-74
2021/01/13 09:51:10;;;;;;;7.10;2.45;;;12.90;88.90;;;;;;4897047;29;20441;-74
2021/01/13 09:53:58;;;;;;;9.35;4.65;;;12.80;88.10;;;;;;4905865;29;20083;-73
2021/01/13 09:56:25;;;;;;;9.48;4.47;;;13.10;88.20;;;;;;4916676;29;20040;-73
2021/01/13 09:58:52;;;;;;;8.48;3.88;;;13.10;88.10;;;;;;4916843;29;20036;-74
2021/01/13 10:01:38;;;;;;;6.28;2.20;;;13.20;88.00;;;;;;4916739;29;20051;-73
2021/01/13 10:04:12;;;;;;;6.88;1.23;;;13.20;87.70;;;;;;4916520;29;20044;-73
2021/01/13 10:06:42;;;;;;;8.25;1.80;;;13.40;87.50;;;;;;4916004;29;20132;-73
2021/01/13 10:09:13;;;;;;;5.60;2.00;;;13.40;87.20;;;;;;4916660;29;20044;-72
2021/01/13 10:11:40;;;;;;;6.10;2.15;;;13.40;87.00;;;;;;4933367;29;20070;-72
2021/01/13 10:14:08;;;;;;;5.78;1.67;;;13.40;87.00;;;;;;4934674;29;20067;-75
2021/01/13 10:16:41;;;;;;;9.50;3.90;;;13.50;87.00;;;;;;4929710;29;20040;-73
2021/01/13 10:19:07;;;;;;;18.67;8.43;;;13.60;86.70;;;;;;4914718;29;20098;-75
2021/01/13 10:21:37;;;;;;;29.08;13.13;;;13.60;86.60;;;;;;4915091;29;20059;-75
2021/01/13 10:24:24;;;;;;;10.95;4.15;;;13.60;86.30;;;;;;4915506;29;20131;-75
2021/01/13 10:26:50;;;;;;;14.75;6.25;;;13.70;86.20;;;;;;4912489;29;20150;-75
2021/01/13 10:29:24;;;;;;;10.32;4.75;;;13.80;86.20;;;;;;4917040;29;20044;-75
2021/01/13 10:31:51;;;;;;;11.77;5.38;;;13.80;85.80;;;;;;4917789;29;20054;-75
2021/01/13 10:34:17;;;;;;;13.60;4.50;;;13.80;85.70;;;;;;4918247;29;20048;-76
2021/01/13 10:36:49;;;;;;;12.55;5.22;;;13.80;85.40;;;;;;4910572;29;20465;-75
2021/01/13 10:39:22;;;;;;;18.52;7.30;;;13.90;85.30;;;;;;4917846;29;20036;-73
2021/01/13 10:41:50;;;;;;;17.58;8.23;;;14.00;85.20;;;;;;4919405;29;20055;-73
2021/01/13 10:44:18;;;;;;;18.60;8.35;;;14.00;84.80;;;;;;4919462;29;20496;-74
2021/01/13 10:46:55;;;;;;;13.98;6.97;;;14.20;84.50;;;;;;4919506;29;20036;-74
2021/01/13 10:49:27;;;;;;;20.30;7.65;;;14.30;84.40;;;;;;4919480;29;20040;-71
2021/01/13 10:51:56;;;;;;;18.90;8.93;;;14.30;84.00;;;;;;4919159;29;20040;-72
2021/01/13 10:54:31;;;;;;;12.95;6.30;;;14.40;83.70;;;;;;4919016;29;20079;-72
2021/01/13 10:57:05;;;;;;;13.65;5.85;;;14.30;83.10;;;;;;4919531;29;20044;-72
2021/01/13 10:59:32;;;;;;;14.07;6.85;;;14.30;83.10;;;;;;4909563;29;20041;-73
2021/01/13 11:02:09;;;;;;;10.40;4.20;;;14.40;83.10;;;;;;4899656;29;20051;-73
2021/01/13 11:04:42;;;;;;;5.55;1.45;;;14.30;82.80;;;;;;4899837;29;20044;-73
2021/01/13 11:07:15;;;;;;;6.40;2.47;;;14.30;82.50;;;;;;4898944;29;20051;-73
2021/01/13 11:09:43;;;;;;;6.80;2.72;;;14.30;82.70;;;;;;4899302;29;20045;-74
2021/01/13 11:12:16;;;;;;;5.70;1.50;;;14.40;82.30;;;;;;4900079;29;20033;-74
2021/01/13 11:14:46;;;;;;;6.90;0.90;;;14.50;82.00;;;;;;4903732;29;20055;-74
2021/01/13 11:17:14;;;;;;;4.68;0.55;;;14.50;81.70;;;;;;4910079;29;20119;-73
2021/01/13 11:19:55;;;;;;;3.30;0.70;;;14.40;81.40;;;;;;4913803;29;20053;-73
2021/01/13 11:22:53;;;;;;;5.63;0.80;;;14.30;81.20;;;;;;4899317;29;20036;-75
2021/01/13 11:25:23;;;;;;;6.22;1.98;;;14.50;81.00;;;;;;4900033;29;20049;-75
2021/01/13 11:28:02;;;;;;;8.13;3.28;;;14.50;80.80;;;;;;4900515;29;20539;-75
2021/01/13 11:30:29;;;;;;;15.35;7.22;;;14.50;80.40;;;;;;4909879;29;20095;-75
2021/01/13 11:32:57;;;;;;;15.82;7.07;;;14.70;80.30;;;;;;4918219;29;20496;-74
2021/01/13 11:35:32;;;;;;;14.18;6.13;;;14.80;80.10;;;;;;4918447;29;20488;-74
2021/01/13 11:38:28;;;;;;;9.45;4.07;;;14.70;79.50;;;;;;4918534;29;20119;-75
2021/01/13 11:41:18;;;;;;;5.65;2.25;;;14.80;79.50;;;;;;4917984;29;20099;-74
2021/01/13 11:44:21;;;;;;;7.53;1.70;;;14.90;79.00;;;;;;4918861;29;20039;-75
2021/01/13 11:47:19;;;;;;;4.72;0.90;;;15.00;78.90;;;;;;4918853;29;20043;-72
2021/01/13 11:49:46;;;;;;;4.07;1.23;;;15.10;78.70;;;;;;4918655;29;20496;-75
2021/01/13 11:52:16;;;;;;;4.63;1.23;;;15.10;78.20;;;;;;4918494;29;20043;-76
2021/01/13 11:54:47;;;;;;;3.75;1.10;;;15.10;77.70;;;;;;4918584;29;20044;-75
2021/01/13 11:57:20;;;;;;;5.10;1.48;;;15.20;77.20;;;;;;4918876;29;20119;-74
2021/01/13 11:59:46;;;;;;;6.45;2.13;;;15.40;77.00;;;;;;4918578;29;20286;-77
2021/01/13 12:02:32;;;;;;;6.20;1.92;;;15.40;76.60;;;;;;4918165;29;20075;-77
2021/01/13 12:04:57;;;;;;;7.45;1.77;;;15.30;76.60;;;;;;4917742;29;20535;-75
2021/01/13 12:07:23;;;;;;;4.18;1.77;;;15.20;75.90;;;;;;4918294;29;20036;-74
2021/01/13 12:10:14;;;;;;;9.77;2.22;;;15.20;75.50;;;;;;4918129;29;20493;-75
2021/01/13 12:12:41;;;;;;;6.40;1.88;;;15.20;75.60;;;;;;4918824;29;20040;-76
2021/01/13 12:15:11;;;;;;;6.20;1.92;;;15.20;75.20;;;;;;4918405;29;20060;-75
2021/01/13 12:17:49;;;;;;;5.97;2.10;;;15.10;74.90;;;;;;4917301;29;20042;-76
2021/01/13 12:20:31;;;;;;;5.32;1.27;;;15.00;74.70;;;;;;4918333;29;20122;-75
2021/01/13 12:22:57;;;;;;;4.55;1.58;;;15.20;74.70;;;;;;4918242;29;20048;-74
2021/01/13 12:25:26;;;;;;;5.95;1.35;;;15.00;74.70;;;;;;4918801;29;20555;-75
2021/01/13 12:28:07;;;;;;;10.05;3.28;;;15.00;74.30;;;;;;4918572;29;20074;-76
2021/01/13 12:30:34;;;;;;;6.45;2.53;;;15.10;74.40;;;;;;4918639;29;20108;-75
2021/01/13 12:33:05;;;;;;;7.32;2.97;;;15.00;74.10;;;;;;4918423;29;20036;-75
2021/01/13 12:35:31;;;;;;;17.50;8.90;;;15.00;73.90;;;;;;4918292;29;20040;-75
2021/01/13 12:37:58;;;;;;;17.45;7.35;;;15.10;73.80;;;;;;4918413;29;20044;-74
2021/01/13 12:40:31;;;;;;;27.75;14.68;;;15.10;73.70;;;;;;4918205;29;20048;-75
2021/01/13 12:43:09;;;;;;;11.90;4.35;;;15.00;73.50;;;;;;4918390;29;20084;-76
2021/01/13 12:45:35;;;;;;;17.00;6.85;;;15.30;73.60;;;;;;4918068;29;20036;-76
2021/01/13 12:48:01;;;;;;;9.20;3.47;;;15.20;73.30;;;;;;4918004;29;20492;-76
2021/01/13 12:50:27;;;;;;;5.75;3.25;;;15.20;73.00;;;;;;4918090;29;20051;-76
2021/01/13 12:52:53;;;;;;;6.15;2.28;;;15.30;72.90;;;;;;4917368;29;20036;-76
2021/01/13 12:55:18;;;;;;;7.60;2.17;;;15.20;72.60;;;;;;4918172;29;20044;-78
2021/01/13 12:57:44;;;;;;;7.45;1.90;;;15.20;72.30;;;;;;4900700;29;20082;-76
2021/01/13 13:00:11;;;;;;;4.28;1.52;;;15.10;72.10;;;;;;4917878;29;20091;-75
2021/01/13 13:02:38;;;;;;;8.35;1.50;;;15.20;71.80;;;;;;4917324;29;20420;-75
2021/01/13 13:05:04;;;;;;;5.25;0.80;;;15.30;71.60;;;;;;4912695;29;20048;-75
2021/01/13 13:07:34;;;;;;;5.05;0.73;;;15.20;71.10;;;;;;4916470;29;20091;-76
2021/01/13 13:09:59;;;;;;;8.80;2.10;;;15.20;71.00;;;;;;4898325;29;20060;-75
2021/01/13 13:12:25;;;;;;;4.20;0.77;;;15.20;71.00;;;;;;4903320;29;20055;-76
2021/01/13 13:14:51;;;;;;;3.53;0.50;;;15.10;71.00;;;;;;4912537;29;20096;-74